createdAt,value
2022-11-14T00:01:05.445Z,18.637
2022-11-14T00:16:07.364Z,18.874
2022-11-14T00:31:09.340Z,18.843
2022-11-14T00:46:11.296Z,17.638
2022-11-14T01:01:13.282Z,18.178
2022-11-14T01:16:15.273Z,18.406
2022-11-14T01:31:18.162Z,17.669
2022-11-14T01:46:20.070Z,17.29
2022-11-14T02:01:21.997Z,17.786
2022-11-14T02:16:24.007Z,17.762
2022-11-14T02:31:25.879Z,17.746
2022-11-14T02:46:27.721Z,16.627
2022-11-14T03:01:29.633Z,17.261
2022-11-14T03:16:31.584Z,18.181
2022-11-14T03:31:33.469Z,16.956
2022-11-14T03:46:35.344Z,17.53
2022-11-14T04:01:37.178Z,17.621
2022-11-14T04:16:39.030Z,17.315
2022-11-14T04:31:40.887Z,18.348
2022-11-14T04:46:42.750Z,17.421
2022-11-14T05:01:44.681Z,18.032
2022-11-14T05:16:46.618Z,18.637
2022-11-14T05:31:48.493Z,17.809
2022-11-14T05:46:50.338Z,18.074
2022-11-14T06:01:52.240Z,18.276
2022-11-14T06:16:54.138Z,17.979
2022-11-14T06:31:55.950Z,18.513
2022-11-14T06:46:57.790Z,17.695
2022-11-14T07:01:59.665Z,18.112
2022-11-14T07:17:01.511Z,17.52
2022-11-14T07:32:03.414Z,18.057
2022-11-14T07:47:05.503Z,18.14
2022-11-14T08:02:07.355Z,17.402
2022-11-14T08:17:09.206Z,18.486
2022-11-14T08:32:11.037Z,18.069
2022-11-14T08:47:12.929Z,18.773
2022-11-14T09:02:14.793Z,19.079
2022-11-14T09:17:16.623Z,19.278
2022-11-14T09:32:18.438Z,20.087
2022-11-14T09:47:20.973Z,19.608
2022-11-14T10:02:23.129Z,19.975
2022-11-14T10:17:25.028Z,20.143
2022-11-14T10:32:26.874Z,20.048
2022-11-14T10:47:28.917Z,21.184
2022-11-14T11:02:36.167Z,20.767
2022-11-14T11:17:42.987Z,22.245
2022-11-14T11:32:45.059Z,21.308
2022-11-14T11:47:46.914Z,22.357
2022-11-14T12:02:50.381Z,21.695
2022-11-14T12:17:52.477Z,22.478
2022-11-14T12:32:54.352Z,22.049
2022-11-14T12:47:56.214Z,22.712
2022-11-14T13:02:58.091Z,22.004
2022-11-14T13:18:00.016Z,22.916
2022-11-14T13:33:01.923Z,22.095
2022-11-14T13:48:03.758Z,22.998
2022-11-14T14:03:05.676Z,22.215
2022-11-14T14:18:07.480Z,23.054
2022-11-14T14:33:09.352Z,26.559
2022-11-14T14:48:11.174Z,25.77
2022-11-14T15:03:13.004Z,24.223
2022-11-14T15:18:14.865Z,24.849
2022-11-14T15:33:16.778Z,23.998
2022-11-14T15:48:18.613Z,24.036
2022-11-14T16:03:20.448Z,23.531
2022-11-14T16:18:22.286Z,24.106
2022-11-14T16:33:24.146Z,23.27
2022-11-14T16:48:25.982Z,24.364
2022-11-14T17:03:28.083Z,22.994
2022-11-14T17:18:34.126Z,24.619
2022-11-14T17:33:40.077Z,21.953
2022-11-14T17:48:41.928Z,22.784
2022-11-14T18:03:43.798Z,21.745
2022-11-14T18:18:45.648Z,22.342
2022-11-14T18:33:47.521Z,23.166
2022-11-14T18:48:49.374Z,22.847
2022-11-14T19:03:51.246Z,21.454
2022-11-14T19:18:53.231Z,21.57
2022-11-14T19:33:55.104Z,21.299
2022-11-14T19:48:56.972Z,21.025
2022-11-14T20:03:58.825Z,21.013
2022-11-14T20:19:00.692Z,20.607
2022-11-14T20:34:02.516Z,20.246
2022-11-14T20:49:04.429Z,19.985
2022-11-14T21:04:06.330Z,19.442
2022-11-14T21:19:08.216Z,19.177
2022-11-14T21:34:10.053Z,19.242
2022-11-14T21:49:11.936Z,19.247
2022-11-14T22:04:13.786Z,19.031
2022-11-14T22:19:15.826Z,19.444
2022-11-14T22:34:17.688Z,19.595
2022-11-14T22:49:21.232Z,18.908
2022-11-14T23:04:23.287Z,19.295
2022-11-14T23:19:25.088Z,19.509
2022-11-14T23:34:26.941Z,18.963
2022-11-14T23:49:28.803Z,19.055
